Aviation Digital Data Service (ADDS)

Output produced by METARs form (0710 UTC 20 October 2018)
found at http://www.aviationweather.gov/metar/data/
 
GMAD 200700Z VRB02KT 9999 SCT016 15/14 Q1012 NOSIG
TAF GMAD 200500Z 2006/2112 08004KT 6000 SCT020
       
GMMC 200700Z 18008KT 9999 SCT026 14/12 Q1011
GMFO 200700Z VRB03KT 9999 SCT006 13/13 Q1014 NOSIG
TAF GMFO 200500Z 2006/2112 22004KT SCT013 SCT040 
     BECMG 2008/2010 20015KT 
     BECMG 2016/2018 02011KT
       
GMMW 200700Z 15001KT 9999 FEW030 15/11 Q1012 NOSIG
TAF AMD GMMW 200500Z 2006/2112 30006KT 9999 FEW030 
     PROB30 
     TEMPO 2006/2007 6000 -RA BKN020TCU SCT80 
     BECMG 2008/2010 8000 NSC 
     BECMG 2100/2103 BKN010
       
GMFM 200700Z 13004KT 9999 SCT016 12/11 Q1013 NOSIG
TAF GMFM 200500Z 2006/2112 20010KT 5000 BKN016 
     TEMPO 2010/2018 31010KT 6000 SCT020 SCT100 
     BECMG 2020/2024 24008KT 8000 NSW
       
GMTA 200700Z 22006KT 9999 FEW030 17/12 Q1011 NOSIG
TAF GMTA 200500Z 2006/2112 20010KT 8000 NSC 
     PROB40 
     TEMPO 2006/2007 6000 -RA SCT016TCU BKN100 
     BECMG 2007/2009 SCT017
       
GMMI 200700Z 20004KT 8000 SCT026 16/14 Q1011 NOSIG
TAF GMMI 200500Z 2006/2112 20012KT 6000 SCT030
       
GMTT 200700Z 10003KT 8000 SCT016 SCT093 15/14 Q1012 NOSIG
TAF GMTT 200500Z 2006/2112 10005KT 8000 BKN015 SCT023 
     PROB40 
     TEMPO 2006/2016 3000 SHRA SCT008 BKN015 FEW023TCU 
     BECMG 2023/2103 10010KT
       
GMMX 200700Z VRB01KT 9999 FEW023 14/12 Q1012 NOSIG
TAF GMMX 200500Z 2006/2112 24005KT 8000 BKN020 
     BECMG 2010/2014 32015KT SCT026 SCT080 
     BECMG 2021/2024 24003KT CAVOK 
     TEMPO 2102/2110 2000 BR BKN010
       
GMMN 200700Z 15004KT 7000 BKN020 12/12 Q1012 NOSIG
TAF GMMN 200500Z 2006/2112 VRB02KT 2000 BR SCT010 
     PROB30 
     TEMPO 2006/2008 0600 FG BKN006 
     BECMG 2008/2010 16006KT 9999 SCT016 
     TEMPO 2014/2018 18010KT BKN016 
     BECMG 2020/2024 VRB02KT
       
GMFK 200700Z 20004KT CAVOK 13/07 Q1015 NOSIG
GMMZ 200700Z VRB01KT CAVOK 11/03 Q1014 NOSIG
TAF GMMZ 200500Z 2006/2112 VRB02KT 9999 FEW040 
     TEMPO 2015/2020 20015KT
       
GMAT 200700Z 24006KT 9999 FEW016 15/14 Q1012 NOSIG
GMFF 200700Z 00000KT 9999 SCT030 13/13 Q1013 NOSIG
TAF GMFF 200500Z 2006/2112 04010KT 9999 SCT030 
     BECMG 2020/2024 16004KT
       
GMME 200700Z 14003KT 100V190 9999 FEW015 SCT026 12/11 Q1011 NOSIG
TAF GMME 200500Z 2006/2112 18008KT 6000 SCT013 SCT016 
     TEMPO 2012/2018 32010KT 9999 
     TEMPO 2100/2106 VRB02KT
       
GMTN 200700Z 21003KT 180V240 9999 FEW026 SCT083 14/13 Q1012 NOSIG